Time;durP1;ratioP1;P1;durP2;ratioP2;P2;SDS_P1;SDS_P2;PMS_P1;PMS_P2;Temp;Humidity;BMP_temperature;BMP_pressure;BME280_temperature;BME280_humidity;BME280_pressure;Samples;Min_cycle;Max_cycle;Signal;HPM_P1;HPM_P2
2022/01/10 00:00:14;;;;;;;;;;;1.80;99.90;;;;;;6097774;23;19925;-77
2022/01/10 00:02:43;;;;;;;;;;;1.80;99.90;;;;;;6122729;23;19921;-78
2022/01/10 00:05:10;;;;;;;;;;;1.90;99.90;;;;;;6123625;23;19921;-78
2022/01/10 00:07:38;;;;;;;;;;;1.80;99.90;;;;;;6122606;23;19972;-78
2022/01/10 00:10:05;;;;;;;;;;;1.80;99.90;;;;;;6123351;23;20008;-78
2022/01/10 00:12:32;;;;;;;;;;;1.80;99.90;;;;;;6123362;23;20421;-77
2022/01/10 00:14:58;;;;;;;;;;;1.80;99.90;;;;;;6122654;23;19925;-78
2022/01/10 00:17:25;;;;;;;;;;;1.80;99.90;;;;;;6097831;23;19925;-78
2022/01/10 00:19:54;;;;;;;;;;;1.80;99.90;;;;;;6097778;23;19971;-77
2022/01/10 00:22:23;;;;;;;;;;;1.80;99.90;;;;;;6097427;23;19932;-77
2022/01/10 00:24:49;;;;;;;;;;;1.80;99.90;;;;;;6097134;23;20294;-78
2022/01/10 00:27:16;;;;;;;;;;;1.80;99.90;;;;;;6097244;23;20421;-78
2022/01/10 00:29:43;;;;;;;;;;;1.80;99.90;;;;;;6098446;23;19975;-78
2022/01/10 00:32:10;;;;;;;;;;;1.80;99.90;;;;;;6097396;23;19921;-78
2022/01/10 00:34:37;;;;;;;;;;;1.80;99.90;;;;;;6096722;23;19921;-78
2022/01/10 00:37:05;;;;;;;;;;;1.80;99.90;;;;;;6097470;23;19928;-78
2022/01/10 00:39:32;;;;;;;;;;;1.80;99.90;;;;;;6096041;23;19921;-78
2022/01/10 00:41:59;;;;;;;;;;;1.80;99.90;;;;;;6095649;23;19921;-77
2022/01/10 00:44:30;;;;;;;;;;;1.70;99.90;;;;;;6122819;23;19921;-78
2022/01/10 00:46:57;;;;;;;;;;;1.70;99.90;;;;;;6096973;23;19928;-78
2022/01/10 00:49:24;;;;;;;;;;;1.80;99.90;;;;;;6096066;23;19925;-78
2022/01/10 00:51:51;;;;;;;;;;;1.80;99.90;;;;;;6093916;23;19928;-78
2022/01/10 00:54:19;;;;;;;;;;;1.70;99.90;;;;;;6123080;23;19983;-77
2022/01/10 00:56:46;;;;;;;;;;;1.70;99.90;;;;;;6095391;23;20273;-77
2022/01/10 00:59:13;;;;;;;;;;;1.70;99.90;;;;;;6096847;23;20266;-77
2022/01/10 01:01:41;;;;;;;;;;;1.70;99.90;;;;;;6094944;23;20290;-77
2022/01/10 01:04:08;;;;;;;;;;;1.70;99.90;;;;;;6097013;23;19925;-77
2022/01/10 01:06:35;;;;;;;;;;;1.70;99.90;;;;;;6124002;23;20630;-78
2022/01/10 01:09:07;;;;;;;;;;;1.70;99.90;;;;;;6123498;23;19921;-77
2022/01/10 01:14:25;;;;;;;;;;;1.70;99.90;;;;;;6096100;23;19921;-77
2022/01/10 01:17:09;;;;;;;;;;;1.70;99.90;;;;;;6121956;23;19996;-76
2022/01/10 01:25:19;;;;;;;;;;;1.70;99.90;;;;;;6066563;23;19953;-77
2022/01/10 01:27:51;;;;;;;;;;;1.70;99.90;;;;;;6097034;23;19927;-78
2022/01/10 01:30:18;;;;;;;;;;;1.70;99.90;;;;;;6095473;23;19956;-77
2022/01/10 01:32:45;;;;;;;;;;;1.70;99.90;;;;;;6096420;23;19925;-78
2022/01/10 01:35:13;;;;;;;;;;;1.70;99.90;;;;;;6097343;23;19921;-77
2022/01/10 01:37:40;;;;;;;;;;;1.70;99.90;;;;;;6096895;23;19924;-77
2022/01/10 01:40:10;;;;;;;;;;;1.70;99.90;;;;;;6096041;23;19921;-77
2022/01/10 01:42:37;;;;;;;;;;;1.70;99.90;;;;;;6097044;23;20150;-78
2022/01/10 01:45:09;;;;;;;;;;;1.70;99.90;;;;;;6097154;23;19948;-77
2022/01/10 01:47:36;;;;;;;;;;;1.70;99.90;;;;;;6097449;23;19932;-77
2022/01/10 01:50:08;;;;;;;;;;;1.70;99.90;;;;;;6095998;23;19921;-77
2022/01/10 01:52:36;;;;;;;;;;;1.60;99.90;;;;;;6100280;23;19940;-83
2022/01/10 01:55:04;;;;;;;;;;;1.70;99.90;;;;;;6171651;23;19920;-83
2022/01/10 01:57:31;;;;;;;;;;;1.60;99.90;;;;;;6176309;23;19924;-84
2022/01/10 02:00:00;;;;;;;;;;;1.70;99.90;;;;;;6176579;23;19920;-82
2022/01/10 02:02:28;;;;;;;;;;;1.60;99.90;;;;;;6175710;23;20349;-83
2022/01/10 02:04:57;;;;;;;;;;;1.60;99.90;;;;;;6177212;23;19921;-83
2022/01/10 02:07:24;;;;;;;;;;;1.60;99.90;;;;;;6203820;23;19924;-82
2022/01/10 02:09:51;;;;;;;;;;;1.60;99.90;;;;;;6177401;23;19947;-82
2022/01/10 02:12:19;;;;;;;;;;;1.60;99.90;;;;;;6178285;23;19928;-82
2022/01/10 02:14:47;;;;;;;;;;;1.60;99.90;;;;;;6177618;23;19921;-83
2022/01/10 02:17:18;;;;;;;;;;;1.60;99.90;;;;;;6179254;23;19943;-81
2022/01/10 02:19:56;;;;;;;;;;;1.60;99.90;;;;;;6177256;23;19948;-84
2022/01/10 02:22:23;;;;;;;;;;;1.60;99.90;;;;;;6179508;23;19927;-83
2022/01/10 02:28:38;;;;;;;;;;;1.60;99.90;;;;;;6204956;23;19923;-81
2022/01/10 02:31:07;;;;;;;;;;;1.60;99.90;;;;;;6179763;23;19944;-82
2022/01/10 02:33:34;;;;;;;;;;;1.60;99.90;;;;;;6205561;23;19925;-82
2022/01/10 02:36:15;;;;;;;;;;;1.60;99.90;;;;;;6179314;23;19924;-82
2022/01/10 02:42:12;;;;;;;;;;;1.60;99.90;;;;;;6206459;23;19900;-83
2022/01/10 02:44:39;;;;;;;;;;;1.60;99.90;;;;;;6179271;23;20263;-82
2022/01/10 02:47:07;;;;;;;;;;;1.60;99.90;;;;;;6179211;23;19920;-82
2022/01/10 02:49:37;;;;;;;;;;;1.60;99.90;;;;;;6179773;23;19943;-83
2022/01/10 02:52:07;;;;;;;;;;;1.70;99.90;;;;;;6180444;23;19963;-82
2022/01/10 02:54:37;;;;;;;;;;;1.60;99.90;;;;;;6180400;23;19920;-82
2022/01/10 02:57:14;;;;;;;;;;;1.60;99.90;;;;;;6180781;23;20348;-82
2022/01/10 02:59:42;;;;;;;;;;;1.60;99.90;;;;;;6178711;23;19920;-81
2022/01/10 03:02:10;;;;;;;;;;;1.60;99.90;;;;;;6179114;23;19924;-82
2022/01/10 03:04:39;;;;;;;;;;;1.60;99.90;;;;;;6179845;23;19920;-81
2022/01/10 03:07:07;;;;;;;;;;;1.60;99.90;;;;;;6180339;23;19947;-85
2022/01/10 03:09:36;;;;;;;;;;;1.60;99.90;;;;;;6180924;23;20171;-82
2022/01/10 03:15:37;;;;;;;;;;;1.60;99.90;;;;;;6205909;23;19935;-82
2022/01/10 03:18:04;;;;;;;;;;;1.60;99.90;;;;;;6179834;23;19920;-82
2022/01/10 03:20:31;;;;;;;;;;;1.60;99.90;;;;;;6205055;23;19972;-82
2022/01/10 03:23:01;;;;;;;;;;;1.60;99.90;;;;;;6179373;23;19943;-81
2022/01/10 03:25:29;;;;;;;;;;;1.60;99.90;;;;;;6179441;23;19920;-83
2022/01/10 03:27:59;;;;;;;;;;;1.60;99.90;;;;;;6179671;23;19924;-83
2022/01/10 03:30:28;;;;;;;;;;;1.60;99.90;;;;;;6179695;23;19920;-81
2022/01/10 03:32:58;;;;;;;;;;;1.60;99.90;;;;;;6179879;23;19951;-83
2022/01/10 03:35:30;;;;;;;;;;;1.60;99.90;;;;;;6180427;23;19935;-83
2022/01/10 03:37:57;;;;;;;;;;;1.60;99.90;;;;;;6180041;23;19921;-82
2022/01/10 03:40:30;;;;;;;;;;;1.60;99.90;;;;;;6180161;23;19928;-84
2022/01/10 03:43:02;;;;;;;;;;;1.60;99.90;;;;;;6181418;23;20353;-82
2022/01/10 03:45:29;;;;;;;;;;;1.60;99.90;;;;;;6180794;23;19924;-81
2022/01/10 03:47:56;;;;;;;;;;;1.60;99.90;;;;;;6181900;23;19920;-82
2022/01/10 03:50:27;;;;;;;;;;;1.60;99.90;;;;;;6158382;23;19920;-82
2022/01/10 03:52:54;;;;;;;;;;;1.60;99.90;;;;;;6176755;23;19942;-82
2022/01/10 03:55:22;;;;;;;;;;;1.60;99.90;;;;;;6175891;23;19924;-82
2022/01/10 03:57:51;;;;;;;;;;;1.60;99.90;;;;;;6176875;23;19924;-83
2022/01/10 04:00:18;;;;;;;;;;;1.60;99.90;;;;;;6176432;23;19921;-82
2022/01/10 04:02:52;;;;;;;;;;;1.60;99.90;;;;;;6176484;23;19920;-82
2022/01/10 04:05:24;;;;;;;;;;;1.60;99.90;;;;;;6176931;23;19920;-84
2022/01/10 04:07:51;;;;;;;;;;;1.60;99.90;;;;;;6176285;23;19944;-82
2022/01/10 04:10:19;;;;;;;;;;;1.60;99.90;;;;;;6176632;23;19921;-83
2022/01/10 04:12:46;;;;;;;;;;;1.60;99.90;;;;;;6175886;23;19928;-82
2022/01/10 04:15:15;;;;;;;;;;;1.60;99.90;;;;;;6176069;23;20305;-83
2022/01/10 04:17:43;;;;;;;;;;;1.60;99.90;;;;;;6177747;23;19921;-84
2022/01/10 04:20:11;;;;;;;;;;;1.60;99.90;;;;;;6175101;23;19975;-82
2022/01/10 04:22:38;;;;;;;;;;;1.60;99.90;;;;;;6175987;23;19944;-82
2022/01/10 04:25:05;;;;;;;;;;;1.60;99.90;;;;;;6175783;23;19921;-82
2022/01/10 04:27:33;;;;;;;;;;;1.60;99.90;;;;;;6175990;23;19932;-82
2022/01/10 04:30:01;;;;;;;;;;;1.60;99.90;;;;;;6176668;23;19921;-82
2022/01/10 04:32:32;;;;;;;;;;;1.70;99.90;;;;;;6176885;23;19972;-83
2022/01/10 04:35:00;;;;;;;;;;;1.70;99.90;;;;;;6175669;23;19935;-82
2022/01/10 04:37:29;;;;;;;;;;;1.60;99.90;;;;;;6173412;23;19994;-83
2022/01/10 04:39:57;;;;;;;;;;;1.60;99.90;;;;;;6174652;23;19920;-82
2022/01/10 04:42:25;;;;;;;;;;;1.60;99.90;;;;;;6175595;23;19921;-84
2022/01/10 04:44:52;;;;;;;;;;;1.60;99.90;;;;;;6176699;23;19920;-83
2022/01/10 04:47:22;;;;;;;;;;;1.70;99.90;;;;;;6173127;23;20138;-80
2022/01/10 04:52:33;;;;;;;;;;;1.60;99.90;;;;;;6171270;23;19921;-82
2022/01/10 04:55:02;;;;;;;;;;;1.70;99.90;;;;;;6165141;23;19920;-81
2022/01/10 04:57:32;;;;;;;;;;;1.70;99.90;;;;;;6153554;23;19926;-81
2022/01/10 04:59:59;;;;;;;;;;;1.70;99.90;;;;;;6154378;23;20349;-80
2022/01/10 05:02:26;;;;;;;;;;;1.70;99.90;;;;;;6150898;23;20091;-81
2022/01/10 05:04:54;;;;;;;;;;;1.70;99.90;;;;;;6153276;23;19925;-82
2022/01/10 05:07:23;;;;;;;;;;;1.70;99.90;;;;;;6153139;23;22387;-81
2022/01/10 05:09:51;;;;;;;;;;;1.70;99.90;;;;;;6154517;23;20265;-81
2022/01/10 05:12:20;;;;;;;;;;;1.70;99.90;;;;;;6154623;23;19924;-81
2022/01/10 05:14:47;;;;;;;;;;;1.70;99.90;;;;;;6154036;23;19951;-81
2022/01/10 05:17:15;;;;;;;;;;;1.70;99.90;;;;;;6154387;23;20429;-81
2022/01/10 05:19:42;;;;;;;;;;;1.70;99.90;;;;;;6153800;23;19928;-81
2022/01/10 05:22:10;;;;;;;;;;;1.70;99.90;;;;;;6153312;23;20353;-81
2022/01/10 05:24:38;;;;;;;;;;;1.70;99.90;;;;;;6152765;23;19924;-81
2022/01/10 05:27:06;;;;;;;;;;;1.70;99.90;;;;;;6151212;23;20367;-80
2022/01/10 05:29:33;;;;;;;;;;;1.70;99.90;;;;;;6152431;23;19921;-81
2022/01/10 05:32:00;;;;;;;;;;;1.70;99.90;;;;;;6153597;23;19930;-81
2022/01/10 05:34:36;;;;;;;;;;;1.70;99.90;;;;;;6153549;23;19921;-81
2022/01/10 05:37:03;;;;;;;;;;;1.70;99.90;;;;;;6154226;23;19940;-81
2022/01/10 05:39:31;;;;;;;;;;;1.70;99.90;;;;;;6155988;23;19932;-81
2022/01/10 05:41:59;;;;;;;;;;;1.70;99.90;;;;;;6161091;23;19920;-81
2022/01/10 05:44:26;;;;;;;;;;;1.70;99.90;;;;;;6161312;23;19927;-81
2022/01/10 05:46:53;;;;;;;;;;;1.70;99.90;;;;;;6156277;23;19937;-81
2022/01/10 05:49:26;;;;;;;;;;;1.70;99.90;;;;;;6156863;23;19926;-81
2022/01/10 05:51:54;;;;;;;;;;;1.70;99.90;;;;;;6154325;23;20356;-81
2022/01/10 05:54:38;;;;;;;;;;;1.70;99.90;;;;;;6155871;23;20011;-81
2022/01/10 05:57:06;;;;;;;;;;;1.60;99.90;;;;;;6155946;23;19920;-82
2022/01/10 05:59:37;;;;;;;;;;;1.70;99.90;;;;;;6155218;23;19920;-81
2022/01/10 06:02:06;;;;;;;;;;;1.70;99.90;;;;;;6157237;23;19921;-81
2022/01/10 06:04:34;;;;;;;;;;;1.70;99.90;;;;;;6159001;23;19928;-83
2022/01/10 06:07:12;;;;;;;;;;;1.70;99.90;;;;;;6169000;23;19930;-82
2022/01/10 06:09:41;;;;;;;;;;;1.70;99.90;;;;;;6167605;23;20436;-84
2022/01/10 06:12:09;;;;;;;;;;;1.70;99.90;;;;;;6168938;23;19920;-81
2022/01/10 06:14:36;;;;;;;;;;;1.70;99.90;;;;;;6164071;23;19921;-82
2022/01/10 06:17:03;;;;;;;;;;;1.70;99.90;;;;;;6166253;23;20313;-81
2022/01/10 06:19:30;;;;;;;;;;;1.70;99.90;;;;;;6156229;23;19999;-82
2022/01/10 06:21:57;;;;;;;;;;;1.70;99.90;;;;;;6165610;23;19921;-81
2022/01/10 06:24:25;;;;;;;;;;;1.70;99.90;;;;;;6154532;23;19921;-81
2022/01/10 06:26:53;;;;;;;;;;;1.70;99.90;;;;;;6152758;23;20007;-80
2022/01/10 06:29:22;;;;;;;;;;;1.70;99.90;;;;;;6153961;23;19920;-80
2022/01/10 06:31:50;;;;;;;;;;;1.70;99.90;;;;;;6154591;23;19928;-80
2022/01/10 06:34:19;;;;;;;;;;;1.70;99.90;;;;;;6154178;23;19952;-80
2022/01/10 06:36:47;;;;;;;;;;;1.70;99.90;;;;;;6154355;23;19921;-82
2022/01/10 06:39:15;;;;;;;;;;;1.70;99.90;;;;;;6153711;23;19928;-81
2022/01/10 06:41:45;;;;;;;;;;;1.70;99.90;;;;;;6153895;23;19928;-81
2022/01/10 06:44:14;;;;;;;;;;;1.70;99.90;;;;;;6153904;23;19924;-80
2022/01/10 06:46:41;;;;;;;;;;;1.70;99.90;;;;;;6154347;23;20514;-80
2022/01/10 06:49:09;;;;;;;;;;;1.70;99.90;;;;;;6151739;23;19979;-80
2022/01/10 06:51:36;;;;;;;;;;;1.70;99.90;;;;;;6152251;23;19921;-80
2022/01/10 06:54:03;;;;;;;;;;;1.70;99.90;;;;;;6154738;23;19928;-82
2022/01/10 06:56:29;;;;;;;;;;;1.70;99.90;;;;;;6150829;23;20006;-81
2022/01/10 06:58:57;;;;;;;;;;;1.70;99.90;;;;;;6151986;23;19920;-82
2022/01/10 07:01:36;;;;;;;;;;;1.70;99.90;;;;;;6152288;23;19927;-81
2022/01/10 07:04:03;;;;;;;;;;;1.70;99.90;;;;;;6153699;23;19987;-81
2022/01/10 07:06:30;;;;;;;;;;;1.70;99.90;;;;;;6153520;23;19921;-81
2022/01/10 07:09:00;;;;;;;;;;;1.70;99.90;;;;;;6154413;23;19925;-81
2022/01/10 07:11:41;;;;;;;;;;;1.70;99.90;;;;;;6153989;23;20000;-81
2022/01/10 07:14:11;;;;;;;;;;;1.70;99.90;;;;;;6151238;23;20043;-81
2022/01/10 07:16:43;;;;;;;;;;;1.70;99.90;;;;;;6153904;23;19955;-82
2022/01/10 07:19:11;;;;;;;;;;;1.70;99.90;;;;;;6152363;23;19933;-82
2022/01/10 07:21:40;;;;;;;;;;;1.70;99.90;;;;;;6151186;23;19921;-80
2022/01/10 07:24:10;;;;;;;;;;;1.70;99.90;;;;;;6152342;23;19920;-82
2022/01/10 07:26:41;;;;;;;;;;;1.70;99.90;;;;;;6154683;23;19927;-81
2022/01/10 07:29:08;;;;;;;;;;;1.70;99.90;;;;;;6153619;23;19920;-81
2022/01/10 07:31:35;;;;;;;;;;;1.70;99.90;;;;;;6153190;23;20416;-81
2022/01/10 07:34:04;;;;;;;;;;;1.70;99.90;;;;;;6154497;23;20464;-82
2022/01/10 07:36:31;;;;;;;;;;;1.70;99.90;;;;;;6153527;23;19987;-81
2022/01/10 07:38:58;;;;;;;;;;;1.70;99.90;;;;;;6153649;23;19971;-81
2022/01/10 07:41:25;;;;;;;;;;;1.70;99.90;;;;;;6154548;23;20262;-81
2022/01/10 07:43:52;;;;;;;;;;;1.70;99.90;;;;;;6154787;23;20368;-82
2022/01/10 07:46:21;;;;;;;;;;;1.70;99.90;;;;;;6152381;23;20122;-81
2022/01/10 07:48:47;;;;;;;;;;;1.70;99.90;;;;;;6153221;23;19921;-81
2022/01/10 07:51:17;;;;;;;;;;;1.70;99.90;;;;;;6152195;23;19921;-83
2022/01/10 07:53:44;;;;;;;;;;;1.70;99.90;;;;;;6152445;23;19924;-81
2022/01/10 07:56:11;;;;;;;;;;;1.70;99.90;;;;;;6153572;23;19928;-82
2022/01/10 07:58:38;;;;;;;;;;;1.70;99.90;;;;;;6153237;23;19991;-82
2022/01/10 08:01:06;;;;;;;;;;;1.70;99.90;;;;;;6152726;23;20350;-82
2022/01/10 08:03:33;;;;;;;;;;;1.70;99.90;;;;;;6155482;23;19928;-81
2022/01/10 08:06:00;;;;;;;;;;;1.70;99.90;;;;;;6154567;23;19955;-81
2022/01/10 08:08:29;;;;;;;;;;;1.70;99.90;;;;;;6153307;23;19927;-81
2022/01/10 08:10:56;;;;;;;;;;;1.70;99.90;;;;;;6154309;23;19968;-83
2022/01/10 08:13:24;;;;;;;;;;;1.70;99.90;;;;;;6154830;23;20341;-81
2022/01/10 08:15:51;;;;;;;;;;;1.70;99.90;;;;;;6153735;23;20008;-81
2022/01/10 08:18:18;;;;;;;;;;;1.70;99.90;;;;;;6154916;23;19920;-83
2022/01/10 08:20:45;;;;;;;;;;;1.70;99.90;;;;;;6124148;23;19943;-76
2022/01/10 08:23:12;;;;;;;;;;;1.70;99.90;;;;;;6122741;23;20317;-76
2022/01/10 08:25:41;;;;;;;;;;;1.70;99.90;;;;;;6150393;23;19924;-76
2022/01/10 08:28:08;;;;;;;;;;;1.70;99.90;;;;;;6148702;23;19925;-76
2022/01/10 08:30:35;;;;;;;;;;;1.70;99.90;;;;;;6150108;23;19920;-76
2022/01/10 08:33:01;;;;;;;;;;;1.70;99.90;;;;;;6148451;23;20369;-76
2022/01/10 08:35:29;;;;;;;;;;;1.80;99.90;;;;;;6150469;23;20317;-76
2022/01/10 08:37:56;;;;;;;;;;;1.70;99.90;;;;;;6150298;23;19920;-76
2022/01/10 08:40:23;;;;;;;;;;;1.70;99.90;;;;;;6150901;23;19924;-76
2022/01/10 08:42:52;;;;;;;;;;;1.70;99.90;;;;;;6149365;23;19920;-76
2022/01/10 08:45:18;;;;;;;;;;;1.70;99.90;;;;;;6149688;23;19925;-76
2022/01/10 08:47:46;;;;;;;;;;;1.70;99.90;;;;;;6151610;23;20368;-76
2022/01/10 08:50:13;;;;;;;;;;;1.70;99.90;;;;;;6151373;23;20258;-76
2022/01/10 08:52:41;;;;;;;;;;;1.70;99.90;;;;;;6147588;23;19951;-76
2022/01/10 08:55:08;;;;;;;;;;;1.70;99.90;;;;;;6155396;23;19925;-77
2022/01/10 08:57:36;;;;;;;;;;;1.70;99.90;;;;;;6159302;23;19952;-76
2022/01/10 09:00:05;;;;;;;;;;;1.70;99.90;;;;;;6155748;23;19920;-77
2022/01/10 09:02:32;;;;;;;;;;;1.80;99.90;;;;;;6159964;23;20345;-76
2022/01/10 09:05:00;;;;;;;;;;;1.80;99.90;;;;;;6163506;23;19921;-77
2022/01/10 09:07:27;;;;;;;;;;;1.80;99.90;;;;;;6162775;23;19921;-76
2022/01/10 09:09:55;;;;;;;;;;;1.80;99.90;;;;;;6165047;23;20276;-76
2022/01/10 09:12:22;;;;;;;;;;;1.80;99.90;;;;;;6159409;23;19925;-78
2022/01/10 09:14:49;;;;;;;;;;;1.80;99.90;;;;;;6160311;23;19949;-78
2022/01/10 09:17:18;;;;;;;;;;;1.80;99.90;;;;;;6158226;23;19921;-78
2022/01/10 09:19:45;;;;;;;;;;;1.80;99.90;;;;;;6158246;23;19925;-78
2022/01/10 09:22:12;;;;;;;;;;;1.80;99.90;;;;;;6160569;23;19924;-78
2022/01/10 09:24:39;;;;;;;;;;;1.80;99.90;;;;;;6156291;23;19920;-77
2022/01/10 09:27:06;;;;;;;;;;;1.80;99.90;;;;;;6155800;23;19925;-77
2022/01/10 09:29:33;;;;;;;;;;;1.80;99.90;;;;;;6155896;23;19995;-78
2022/01/10 09:32:00;;;;;;;;;;;1.80;99.90;;;;;;6155845;23;19928;-78
2022/01/10 09:34:28;;;;;;;;;;;1.80;99.90;;;;;;6156140;23;19925;-78
2022/01/10 09:36:55;;;;;;;;;;;1.80;99.90;;;;;;6157176;23;19921;-78
2022/01/10 09:39:22;;;;;;;;;;;1.80;99.90;;;;;;6156641;23;19932;-78
2022/01/10 09:41:49;;;;;;;;;;;1.80;99.90;;;;;;6155960;23;19924;-76
2022/01/10 09:44:17;;;;;;;;;;;1.80;99.90;;;;;;6157648;23;19921;-77
2022/01/10 09:46:47;;;;;;;;;;;1.80;99.90;;;;;;6160177;23;19921;-78
2022/01/10 09:49:14;;;;;;;;;;;1.80;99.90;;;;;;6155411;23;19921;-78
2022/01/10 09:51:42;;;;;;;;;;;1.80;99.90;;;;;;6155260;23;20015;-78
2022/01/10 09:54:10;;;;;;;;;;;1.80;99.90;;;;;;6155622;23;19940;-78
2022/01/10 09:56:38;;;;;;;;;;;1.90;99.90;;;;;;6154779;23;19972;-78
2022/01/10 09:59:05;;;;;;;;;;;1.90;99.90;;;;;;6154161;23;20346;-78
2022/01/10 10:01:32;;;;;;;;;;;1.90;99.90;;;;;;6153458;23;20017;-78
2022/01/10 10:04:00;;;;;;;;;;;1.90;99.90;;;;;;6152571;23;20268;-78
2022/01/10 10:06:28;;;;;;;;;;;1.90;99.90;;;;;;6153230;23;19947;-77
2022/01/10 10:08:58;;;;;;;;;;;1.90;99.90;;;;;;6156296;23;20087;-78
2022/01/10 10:11:36;;;;;;;;;;;1.90;99.90;;;;;;6152989;23;20253;-78
2022/01/10 10:14:04;;;;;;;;;;;1.90;99.90;;;;;;6152023;23;19925;-78
2022/01/10 10:16:32;;;;;;;;;;;1.90;99.90;;;;;;6151839;23;19920;-77
2022/01/10 10:18:59;;;;;;;;;;;1.90;99.90;;;;;;6154187;23;20308;-77
2022/01/10 10:21:26;;;;;;;;;;;1.90;99.90;;;;;;6153331;23;19924;-76
2022/01/10 10:23:53;;;;;;;;;;;1.90;99.90;;;;;;6163200;23;19956;-76
2022/01/10 10:26:24;;;;;;;;;;;1.90;99.90;;;;;;6163498;23;19920;-76
2022/01/10 10:28:52;;;;;;;;;;;1.90;99.90;;;;;;6163613;23;19924;-76
2022/01/10 10:31:24;;;;;;;;;;;1.90;99.90;;;;;;6165916;23;20414;-76
2022/01/10 10:33:51;;;;;;;;;;;1.90;99.90;;;;;;6166385;23;19929;-76
2022/01/10 10:36:18;;;;;;;;;;;1.90;99.90;;;;;;6163398;23;19924;-77
2022/01/10 10:38:46;;;;;;;;;;;1.90;99.90;;;;;;6166830;23;19992;-76
2022/01/10 10:41:13;;;;;;;;;;;1.90;99.90;;;;;;6165615;23;19921;-76
2022/01/10 10:43:43;;;;;;;;;;;1.90;99.90;;;;;;6165824;23;19940;-77
2022/01/10 10:46:13;;;;;;;;;;;1.90;99.90;;;;;;6163647;23;19973;-76
2022/01/10 10:48:40;;;;;;;;;;;1.90;99.90;;;;;;6164709;23;19920;-76
2022/01/10 10:51:07;;;;;;;;;;;2.00;99.90;;;;;;6164166;23;19921;-76
2022/01/10 10:53:34;;;;;;;;;;;2.00;99.90;;;;;;6164589;23;19927;-76
2022/01/10 10:56:04;;;;;;;;;;;2.00;99.90;;;;;;6163883;23;20209;-76
2022/01/10 10:58:31;;;;;;;;;;;2.00;99.90;;;;;;6162218;23;19921;-76
2022/01/10 11:01:01;;;;;;;;;;;2.00;99.90;;;;;;6162962;23;20016;-76
2022/01/10 11:03:28;;;;;;;;;;;2.00;99.90;;;;;;6165113;23;20184;-76
2022/01/10 11:05:57;;;;;;;;;;;2.00;99.90;;;;;;6164194;23;19925;-77
2022/01/10 11:08:26;;;;;;;;;;;2.00;99.90;;;;;;6167095;23;19925;-76
2022/01/10 11:10:55;;;;;;;;;;;2.00;99.90;;;;;;6165142;23;20397;-77
2022/01/10 11:13:24;;;;;;;;;;;2.00;99.90;;;;;;6158299;23;20007;-78
2022/01/10 11:15:52;;;;;;;;;;;2.00;99.90;;;;;;6154966;23;19920;-78
2022/01/10 11:18:21;;;;;;;;;;;2.00;99.90;;;;;;6158497;23;19921;-78
2022/01/10 11:20:49;;;;;;;;;;;2.00;99.90;;;;;;6156719;23;20346;-78
2022/01/10 11:23:16;;;;;;;;;;;2.00;99.90;;;;;;6158394;23;19947;-78
2022/01/10 11:25:43;;;;;;;;;;;2.00;99.90;;;;;;6156975;23;19991;-78
2022/01/10 11:28:11;;;;;;;;;;;2.00;99.90;;;;;;6154204;23;20312;-77
2022/01/10 11:30:39;;;;;;;;;;;2.10;99.90;;;;;;6151281;23;19958;-78
2022/01/10 11:33:08;;;;;;;;;;;2.10;99.90;;;;;;6149314;23;19921;-78
2022/01/10 11:35:37;;;;;;;;;;;2.10;99.90;;;;;;6150550;23;19921;-78
2022/01/10 11:38:31;;;;;;;;;;;2.10;99.90;;;;;;6151672;23;20213;-78
2022/01/10 11:41:00;;;;;;;;;;;2.10;99.90;;;;;;6082255;23;20265;-79
2022/01/10 11:43:28;;;;;;;;;;;2.10;99.90;;;;;;6148847;23;19925;-78
2022/01/10 11:46:06;;;;;;;;;;;2.10;99.90;;;;;;6150176;23;20318;-78
2022/01/10 11:48:42;;;;;;;;;;;2.10;99.90;;;;;;6150145;23;19928;-77
2022/01/10 11:51:14;;;;;;;;;;;2.10;99.90;;;;;;6150000;23;20137;-78
2022/01/10 11:53:46;;;;;;;;;;;2.10;99.90;;;;;;6149408;23;19925;-78
2022/01/10 11:56:25;;;;;;;;;;;2.10;99.90;;;;;;6151928;23;19932;-77
2022/01/10 11:59:07;;;;;;;;;;;2.20;99.90;;;;;;6148878;23;19920;-77
2022/01/10 12:01:34;;;;;;;;;;;2.20;99.90;;;;;;6149799;23;19925;-78
2022/01/10 12:04:01;;;;;;;;;;;2.10;99.90;;;;;;6151701;23;19921;-77
2022/01/10 12:06:29;;;;;;;;;;;2.20;99.90;;;;;;6148873;23;19920;-77
2022/01/10 12:08:57;;;;;;;;;;;2.20;99.90;;;;;;6150580;23;19935;-77
2022/01/10 12:11:24;;;;;;;;;;;2.20;99.90;;;;;;6150326;23;19924;-77
2022/01/10 12:13:52;;;;;;;;;;;2.20;99.90;;;;;;6151870;23;20253;-77
2022/01/10 12:16:19;;;;;;;;;;;2.20;99.90;;;;;;6148975;23;20003;-77
2022/01/10 12:18:46;;;;;;;;;;;2.20;99.90;;;;;;6148663;23;19927;-77
2022/01/10 12:21:14;;;;;;;;;;;2.20;99.90;;;;;;6148794;23;19979;-77
2022/01/10 12:23:43;;;;;;;;;;;2.20;99.90;;;;;;6149185;23;19920;-77
2022/01/10 12:26:11;;;;;;;;;;;2.20;99.90;;;;;;6150886;23;20345;-77
2022/01/10 12:28:38;;;;;;;;;;;2.20;99.90;;;;;;6149434;23;20364;-77
2022/01/10 12:31:05;;;;;;;;;;;2.20;99.90;;;;;;6151547;23;19972;-77
2022/01/10 12:33:33;;;;;;;;;;;2.20;99.90;;;;;;6151045;23;19924;-77
2022/01/10 12:36:02;;;;;;;;;;;2.20;99.90;;;;;;6150109;23;19928;-77
2022/01/10 12:38:29;;;;;;;;;;;2.30;99.90;;;;;;6149113;23;19920;-77
2022/01/10 12:40:57;;;;;;;;;;;2.30;99.90;;;;;;6149626;23;20261;-77
2022/01/10 12:43:25;;;;;;;;;;;2.30;99.90;;;;;;6149636;23;19999;-77
2022/01/10 12:45:52;;;;;;;;;;;2.30;99.90;;;;;;6149786;23;19924;-77
2022/01/10 12:48:19;;;;;;;;;;;2.30;99.90;;;;;;6147941;23;20361;-77
2022/01/10 12:50:48;;;;;;;;;;;2.30;99.90;;;;;;6150229;23;19999;-77
2022/01/10 12:53:16;;;;;;;;;;;2.30;99.90;;;;;;6149599;23;20430;-78
2022/01/10 12:55:43;;;;;;;;;;;2.30;99.90;;;;;;6149475;23;19963;-77
2022/01/10 12:58:13;;;;;;;;;;;2.30;99.90;;;;;;6148364;23;19924;-77
2022/01/10 13:00:40;;;;;;;;;;;2.30;99.90;;;;;;6148992;23;19920;-77
2022/01/10 13:03:08;;;;;;;;;;;2.30;99.90;;;;;;6150769;23;20416;-77
2022/01/10 13:05:35;;;;;;;;;;;2.30;99.90;;;;;;6149924;23;20652;-77
2022/01/10 13:08:04;;;;;;;;;;;2.30;99.90;;;;;;6149517;23;19928;-77
2022/01/10 13:10:33;;;;;;;;;;;2.30;99.90;;;;;;6148717;23;20003;-78
2022/01/10 13:13:02;;;;;;;;;;;2.40;99.90;;;;;;6148665;23;20009;-77
2022/01/10 13:15:35;;;;;;;;;;;2.40;99.90;;;;;;6150405;23;20325;-77
2022/01/10 13:18:03;;;;;;;;;;;2.40;99.90;;;;;;6150278;23;19924;-77
2022/01/10 13:20:32;;;;;;;;;;;2.40;99.90;;;;;;6147770;23;19925;-77
2022/01/10 13:23:01;;;;;;;;;;;2.40;99.90;;;;;;6150705;23;19944;-77
2022/01/10 13:25:32;;;;;;;;;;;2.40;99.90;;;;;;6150229;23;19921;-77
2022/01/10 13:28:01;;;;;;;;;;;2.40;99.90;;;;;;6151697;23;19948;-77
2022/01/10 13:30:28;;;;;;;;;;;2.40;99.90;;;;;;6149125;23;19920;-77
2022/01/10 13:32:57;;;;;;;;;;;2.40;99.90;;;;;;6149855;23;19925;-77
2022/01/10 13:35:25;;;;;;;;;;;2.40;99.90;;;;;;6147143;23;20305;-78
2022/01/10 13:37:57;;;;;;;;;;;2.40;99.90;;;;;;6149983;23;19927;-77
2022/01/10 13:40:25;;;;;;;;;;;2.40;99.90;;;;;;6149118;23;19929;-77
2022/01/10 13:43:03;;;;;;;;;;;2.40;99.90;;;;;;6150902;23;19936;-77
2022/01/10 13:45:52;;;;;;;;;;;2.40;99.90;;;;;;6151883;23;19931;-77
2022/01/10 13:48:22;;;;;;;;;;;2.40;99.90;;;;;;6144055;23;19921;-78
2022/01/10 13:50:50;;;;;;;;;;;2.40;99.90;;;;;;6156177;23;19924;-77
2022/01/10 13:53:22;;;;;;;;;;;2.40;99.90;;;;;;6152667;23;19924;-77
2022/01/10 13:56:04;;;;;;;;;;;2.40;99.90;;;;;;6152433;23;20365;-77
2022/01/10 13:58:31;;;;;;;;;;;2.40;99.90;;;;;;6151401;23;20007;-77
2022/01/10 14:00:59;;;;;;;;;;;2.40;99.90;;;;;;6149673;23;19921;-77
2022/01/10 14:03:29;;;;;;;;;;;2.40;99.90;;;;;;6152484;23;20281;-77
2022/01/10 14:06:19;;;;;;;;;;;2.40;99.90;;;;;;6153673;23;19948;-77
2022/01/10 14:08:49;;;;;;;;;;;2.40;99.90;;;;;;6119975;23;19928;-77
2022/01/10 14:11:17;;;;;;;;;;;2.40;99.90;;;;;;6149885;23;19920;-78
2022/01/10 14:13:46;;;;;;;;;;;2.40;99.90;;;;;;6151891;23;20011;-77
2022/01/10 14:16:13;;;;;;;;;;;2.40;99.90;;;;;;6150633;23;19924;-77
2022/01/10 14:18:42;;;;;;;;;;;2.40;99.90;;;;;;6149156;23;19925;-78
2022/01/10 14:21:09;;;;;;;;;;;2.40;99.90;;;;;;6132860;23;19928;-79
2022/01/10 14:23:37;;;;;;;;;;;2.40;99.90;;;;;;6131963;23;19921;-78
2022/01/10 14:26:04;;;;;;;;;;;2.40;99.90;;;;;;6154369;23;19921;-78
2022/01/10 14:28:31;;;;;;;;;;;2.40;99.90;;;;;;6152251;23;19924;-78
2022/01/10 14:30:58;;;;;;;;;;;2.40;99.90;;;;;;6150306;23;19975;-79
2022/01/10 14:33:26;;;;;;;;;;;2.40;99.90;;;;;;6154598;23;19920;-78
2022/01/10 14:36:00;;;;;;;;;;;2.40;99.90;;;;;;6152817;23;19925;-78
2022/01/10 14:38:28;;;;;;;;;;;2.40;99.90;;;;;;6150459;23;20385;-79
2022/01/10 14:41:00;;;;;;;;;;;2.40;99.90;;;;;;6151208;23;19928;-78
2022/01/10 14:43:27;;;;;;;;;;;2.40;99.90;;;;;;6151582;23;20358;-79
2022/01/10 14:45:54;;;;;;;;;;;2.40;99.90;;;;;;6150658;23;20412;-79
2022/01/10 14:48:21;;;;;;;;;;;2.40;99.90;;;;;;6152230;23;19921;-79
2022/01/10 14:50:48;;;;;;;;;;;2.40;99.90;;;;;;6151385;23;19920;-79
2022/01/10 14:53:17;;;;;;;;;;;2.40;99.90;;;;;;6152240;23;20361;-79
2022/01/10 14:55:47;;;;;;;;;;;2.40;99.90;;;;;;6153147;23;20369;-79
2022/01/10 14:58:15;;;;;;;;;;;2.40;99.90;;;;;;6155305;23;19924;-79
2022/01/10 15:00:44;;;;;;;;;;;2.40;99.90;;;;;;6152670;23;19924;-79